sensor_id;sensor_type;location;lat;lon;timestamp;P1;durP1;ratioP1;P2;durP2;ratioP2
14520;SDS011;7347;50.844;4.490;2023-08-24T08:24:15;2.20;;;1.50;;
14520;SDS011;7347;50.844;4.490;2023-08-24T08:26:42;6.68;;;1.40;;
14520;SDS011;7347;50.844;4.490;2023-08-24T08:29:09;2.03;;;1.45;;
14520;SDS011;7347;50.844;4.490;2023-08-24T08:31:35;3.95;;;1.55;;
14520;SDS011;7347;50.844;4.490;2023-08-24T08:34:02;2.92;;;1.48;;
14520;SDS011;7347;50.844;4.490;2023-08-24T08:36:30;2.97;;;1.33;;
14520;SDS011;7347;50.844;4.490;2023-08-24T08:38:57;2.78;;;1.42;;
14520;SDS011;7347;50.844;4.490;2023-08-24T08:41:27;2.55;;;1.55;;
14520;SDS011;7347;50.844;4.490;2023-08-24T08:44:04;3.17;;;1.48;;
14520;SDS011;7347;50.844;4.490;2023-08-24T08:46:31;2.20;;;1.33;;
14520;SDS011;7347;50.844;4.490;2023-08-24T08:48:59;2.88;;;1.75;;
14520;SDS011;7347;50.844;4.490;2023-08-24T08:51:27;2.83;;;1.55;;
14520;SDS011;7347;50.844;4.490;2023-08-24T08:53:55;3.45;;;1.50;;
14520;SDS011;7347;50.844;4.490;2023-08-24T08:56:22;1.88;;;1.30;;
14520;SDS011;7347;50.844;4.490;2023-08-24T08:58:51;3.45;;;1.60;;
14520;SDS011;7347;50.844;4.490;2023-08-24T09:01:20;2.25;;;1.38;;
14520;SDS011;7347;50.844;4.490;2023-08-24T09:03:47;2.38;;;1.20;;
14520;SDS011;7347;50.844;4.490;2023-08-24T09:06:15;3.08;;;1.75;;
14520;SDS011;7347;50.844;4.490;2023-08-24T09:08:43;3.38;;;1.48;;
14520;SDS011;7347;50.844;4.490;2023-08-24T09:11:10;2.92;;;1.48;;
14520;SDS011;7347;50.844;4.490;2023-08-24T09:13:37;1.77;;;1.30;;
14520;SDS011;7347;50.844;4.490;2023-08-24T09:16:06;2.10;;;1.30;;
14520;SDS011;7347;50.844;4.490;2023-08-24T09:18:34;4.40;;;1.42;;
14520;SDS011;7347;50.844;4.490;2023-08-24T09:21:07;2.50;;;1.27;;
14520;SDS011;7347;50.844;4.490;2023-08-24T09:23:34;5.13;;;1.58;;
14520;SDS011;7347;50.844;4.490;2023-08-24T09:26:01;3.70;;;1.52;;
14520;SDS011;7347;50.844;4.490;2023-08-24T09:28:29;3.78;;;1.48;;
14520;SDS011;7347;50.844;4.490;2023-08-24T09:30:58;3.42;;;1.70;;
14520;SDS011;7347;50.844;4.490;2023-08-24T09:33:28;7.82;;;2.00;;
14520;SDS011;7347;50.844;4.490;2023-08-24T09:35:56;3.97;;;1.30;;
14520;SDS011;7347;50.844;4.490;2023-08-24T09:38:26;4.55;;;1.80;;
14520;SDS011;7347;50.844;4.490;2023-08-24T09:40:54;2.78;;;1.40;;
14520;SDS011;7347;50.844;4.490;2023-08-24T09:43:22;4.40;;;1.73;;
14520;SDS011;7347;50.844;4.490;2023-08-24T09:45:51;3.65;;;1.70;;
14520;SDS011;7347;50.844;4.490;2023-08-24T09:48:19;3.00;;;1.63;;
14520;SDS011;7347;50.844;4.490;2023-08-24T09:50:49;2.80;;;1.70;;
14520;SDS011;7347;50.844;4.490;2023-08-24T09:53:17;2.80;;;1.90;;
14520;SDS011;7347;50.844;4.490;2023-08-24T09:55:48;3.45;;;2.20;;
14520;SDS011;7347;50.844;4.490;2023-08-24T09:58:20;3.50;;;2.10;;
14520;SDS011;7347;50.844;4.490;2023-08-24T10:00:47;5.82;;;2.15;;
14520;SDS011;7347;50.844;4.490;2023-08-24T10:03:17;4.78;;;2.30;;
14520;SDS011;7347;50.844;4.490;2023-08-24T10:05:52;5.05;;;2.30;;
14520;SDS011;7347;50.844;4.490;2023-08-24T10:08:21;5.15;;;2.40;;
14520;SDS011;7347;50.844;4.490;2023-08-24T10:10:52;5.05;;;2.60;;
14520;SDS011;7347;50.844;4.490;2023-08-24T10:13:23;8.77;;;3.13;;
14520;SDS011;7347;50.844;4.490;2023-08-24T10:15:55;2.97;;;2.30;;
14520;SDS011;7347;50.844;4.490;2023-08-24T10:18:22;4.30;;;2.53;;
14520;SDS011;7347;50.844;4.490;2023-08-24T10:20:52;6.75;;;2.72;;
14520;SDS011;7347;50.844;4.490;2023-08-24T10:23:19;4.57;;;2.30;;
14520;SDS011;7347;50.844;4.490;2023-08-24T10:25:47;2.78;;;1.98;;
14520;SDS011;7347;50.844;4.490;2023-08-24T10:28:16;3.60;;;1.95;;
14520;SDS011;7347;50.844;4.490;2023-08-24T10:30:46;3.15;;;1.88;;
14520;SDS011;7347;50.844;4.490;2023-08-24T10:33:14;4.82;;;2.45;;
14520;SDS011;7347;50.844;4.490;2023-08-24T10:35:42;3.38;;;2.20;;
14520;SDS011;7347;50.844;4.490;2023-08-24T10:38:23;4.95;;;2.13;;
14520;SDS011;7347;50.844;4.490;2023-08-24T10:40:51;2.78;;;1.85;;
14520;SDS011;7347;50.844;4.490;2023-08-24T10:43:19;6.75;;;2.30;;
14520;SDS011;7347;50.844;4.490;2023-08-24T10:45:56;2.50;;;1.70;;
14520;SDS011;7347;50.844;4.490;2023-08-24T10:48:23;3.78;;;1.75;;
14520;SDS011;7347;50.844;4.490;2023-08-24T10:53:46;2.92;;;2.05;;
14520;SDS011;7347;50.844;4.490;2023-08-24T10:56:14;2.90;;;2.00;;
14520;SDS011;7347;50.844;4.490;2023-08-24T10:58:44;4.97;;;2.05;;
14520;SDS011;7347;50.844;4.490;2023-08-24T11:01:15;2.63;;;1.90;;
14520;SDS011;7347;50.844;4.490;2023-08-24T11:03:48;3.63;;;2.28;;
14520;SDS011;7347;50.844;4.490;2023-08-24T11:06:20;5.68;;;2.40;;
14520;SDS011;7347;50.844;4.490;2023-08-24T11:08:49;2.95;;;2.03;;
14520;SDS011;7347;50.844;4.490;2023-08-24T11:11:31;3.45;;;2.15;;
14520;SDS011;7347;50.844;4.490;2023-08-24T11:16:51;4.45;;;2.45;;
14520;SDS011;7347;50.844;4.490;2023-08-24T11:19:19;3.40;;;2.00;;
14520;SDS011;7347;50.844;4.490;2023-08-24T11:21:46;2.60;;;2.08;;
14520;SDS011;7347;50.844;4.490;2023-08-24T11:24:15;6.22;;;2.47;;
14520;SDS011;7347;50.844;4.490;2023-08-24T11:26:43;2.50;;;2.03;;
14520;SDS011;7347;50.844;4.490;2023-08-24T11:29:11;5.22;;;2.65;;
14520;SDS011;7347;50.844;4.490;2023-08-24T11:31:39;3.50;;;2.30;;
14520;SDS011;7347;50.844;4.490;2023-08-24T11:34:06;3.42;;;2.05;;
14520;SDS011;7347;50.844;4.490;2023-08-24T11:36:41;3.75;;;2.28;;
14520;SDS011;7347;50.844;4.490;2023-08-24T11:39:13;3.80;;;2.17;;
14520;SDS011;7347;50.844;4.490;2023-08-24T11:41:44;4.10;;;1.77;;
14520;SDS011;7347;50.844;4.490;2023-08-24T11:44:13;3.60;;;2.25;;
14520;SDS011;7347;50.844;4.490;2023-08-24T11:46:40;3.55;;;2.00;;
14520;SDS011;7347;50.844;4.490;2023-08-24T11:49:07;4.68;;;1.90;;
14520;SDS011;7347;50.844;4.490;2023-08-24T11:51:36;3.38;;;1.95;;
14520;SDS011;7347;50.844;4.490;2023-08-24T11:54:03;2.50;;;1.95;;
14520;SDS011;7347;50.844;4.490;2023-08-24T11:56:31;2.80;;;1.85;;
14520;SDS011;7347;50.844;4.490;2023-08-24T11:58:58;4.40;;;2.00;;
14520;SDS011;7347;50.844;4.490;2023-08-24T12:01:25;4.57;;;2.53;;
14520;SDS011;7347;50.844;4.490;2023-08-24T12:03:53;2.78;;;2.03;;
14520;SDS011;7347;50.844;4.490;2023-08-24T12:06:20;2.97;;;1.90;;
14520;SDS011;7347;50.844;4.490;2023-08-24T12:08:47;2.70;;;1.83;;
14520;SDS011;7347;50.844;4.490;2023-08-24T12:11:16;3.90;;;1.92;;
14520;SDS011;7347;50.844;4.490;2023-08-24T12:13:45;2.55;;;1.83;;
14520;SDS011;7347;50.844;4.490;2023-08-24T12:16:13;3.47;;;2.00;;
14520;SDS011;7347;50.844;4.490;2023-08-24T12:18:48;3.47;;;1.77;;
14520;SDS011;7347;50.844;4.490;2023-08-24T12:21:17;3.38;;;1.95;;
14520;SDS011;7347;50.844;4.490;2023-08-24T12:23:44;2.30;;;1.90;;
14520;SDS011;7347;50.844;4.490;2023-08-24T12:26:20;2.60;;;1.60;;
14520;SDS011;7347;50.844;4.490;2023-08-24T12:28:51;4.80;;;2.00;;
14520;SDS011;7347;50.844;4.490;2023-08-24T12:31:19;5.32;;;2.20;;
14520;SDS011;7347;50.844;4.490;2023-08-24T12:33:57;3.15;;;1.85;;
14520;SDS011;7347;50.844;4.490;2023-08-24T12:36:26;3.17;;;1.88;;
14520;SDS011;7347;50.844;4.490;2023-08-24T12:38:53;5.97;;;1.98;;
14520;SDS011;7347;50.844;4.490;2023-08-24T12:41:19;4.45;;;2.28;;
14520;SDS011;7347;50.844;4.490;2023-08-24T12:43:46;3.70;;;2.40;;
14520;SDS011;7347;50.844;4.490;2023-08-24T12:46:15;2.33;;;1.80;;
14520;SDS011;7347;50.844;4.490;2023-08-24T12:48:41;3.10;;;2.20;;
14520;SDS011;7347;50.844;4.490;2023-08-24T12:51:08;6.45;;;1.80;;
14520;SDS011;7347;50.844;4.490;2023-08-24T12:53:35;3.92;;;1.88;;
14520;SDS011;7347;50.844;4.490;2023-08-24T12:56:02;2.67;;;1.83;;
14520;SDS011;7347;50.844;4.490;2023-08-24T12:58:29;4.68;;;2.13;;
14520;SDS011;7347;50.844;4.490;2023-08-24T13:00:56;3.78;;;1.73;;
14520;SDS011;7347;50.844;4.490;2023-08-24T13:03:24;4.38;;;1.80;;
14520;SDS011;7347;50.844;4.490;2023-08-24T13:05:51;2.92;;;1.80;;
14520;SDS011;7347;50.844;4.490;2023-08-24T13:08:18;2.50;;;1.83;;
14520;SDS011;7347;50.844;4.490;2023-08-24T13:10:45;1.70;;;1.50;;
14520;SDS011;7347;50.844;4.490;2023-08-24T13:13:12;2.42;;;1.63;;
14520;SDS011;7347;50.844;4.490;2023-08-24T13:15:39;2.40;;;1.50;;
14520;SDS011;7347;50.844;4.490;2023-08-24T13:18:06;5.03;;;1.50;;
14520;SDS011;7347;50.844;4.490;2023-08-24T13:20:34;2.35;;;1.40;;
14520;SDS011;7347;50.844;4.490;2023-08-24T13:23:01;2.88;;;1.50;;
14520;SDS011;7347;50.844;4.490;2023-08-24T13:25:28;3.50;;;1.45;;
14520;SDS011;7347;50.844;4.490;2023-08-24T13:27:55;4.72;;;2.05;;
14520;SDS011;7347;50.844;4.490;2023-08-24T13:30:22;2.75;;;1.48;;
14520;SDS011;7347;50.844;4.490;2023-08-24T13:32:49;2.08;;;1.38;;
14520;SDS011;7347;50.844;4.490;2023-08-24T13:35:16;2.30;;;1.38;;
14520;SDS011;7347;50.844;4.490;2023-08-24T13:37:44;3.17;;;1.48;;
14520;SDS011;7347;50.844;4.490;2023-08-24T13:40:11;5.65;;;1.20;;
14520;SDS011;7347;50.844;4.490;2023-08-24T13:42:38;1.45;;;0.98;;
14520;SDS011;7347;50.844;4.490;2023-08-24T13:45:05;4.57;;;1.02;;
14520;SDS011;7347;50.844;4.490;2023-08-24T13:47:32;3.28;;;1.33;;
14520;SDS011;7347;50.844;4.490;2023-08-24T13:49:59;1.63;;;1.00;;
14520;SDS011;7347;50.844;4.490;2023-08-24T13:52:27;2.53;;;1.20;;
14520;SDS011;7347;50.844;4.490;2023-08-24T13:54:55;2.58;;;1.30;;
14520;SDS011;7347;50.844;4.490;2023-08-24T13:57:22;1.48;;;1.10;;
14520;SDS011;7347;50.844;4.490;2023-08-24T13:59:49;2.75;;;1.10;;
14520;SDS011;7347;50.844;4.490;2023-08-24T14:02:16;2.03;;;1.10;;
14520;SDS011;7347;50.844;4.490;2023-08-24T14:04:43;2.45;;;1.00;;
14520;SDS011;7347;50.844;4.490;2023-08-24T14:07:09;3.08;;;1.10;;
14520;SDS011;7347;50.844;4.490;2023-08-24T14:09:36;2.42;;;1.10;;
14520;SDS011;7347;50.844;4.490;2023-08-24T14:12:05;3.28;;;1.23;;
14520;SDS011;7347;50.844;4.490;2023-08-24T14:14:32;1.85;;;1.00;;
14520;SDS011;7347;50.844;4.490;2023-08-24T14:16:59;1.52;;;0.80;;
14520;SDS011;7347;50.844;4.490;2023-08-24T14:19:26;1.05;;;0.80;;
14520;SDS011;7347;50.844;4.490;2023-08-24T14:21:53;2.05;;;1.00;;
14520;SDS011;7347;50.844;4.490;2023-08-24T14:24:19;1.80;;;1.00;;
14520;SDS011;7347;50.844;4.490;2023-08-24T14:26:46;3.50;;;0.93;;
14520;SDS011;7347;50.844;4.490;2023-08-24T14:29:15;3.85;;;0.98;;
14520;SDS011;7347;50.844;4.490;2023-08-24T14:31:42;1.15;;;0.70;;
14520;SDS011;7347;50.844;4.490;2023-08-24T14:34:09;2.15;;;0.70;;
14520;SDS011;7347;50.844;4.490;2023-08-24T14:36:36;2.90;;;0.80;;
14520;SDS011;7347;50.844;4.490;2023-08-24T14:39:03;1.40;;;0.73;;
14520;SDS011;7347;50.844;4.490;2023-08-24T14:41:29;1.63;;;0.70;;
14520;SDS011;7347;50.844;4.490;2023-08-24T14:43:56;1.83;;;0.80;;
14520;SDS011;7347;50.844;4.490;2023-08-24T14:46:25;0.90;;;0.60;;
14520;SDS011;7347;50.844;4.490;2023-08-24T14:48:51;1.45;;;0.70;;
14520;SDS011;7347;50.844;4.490;2023-08-24T14:51:18;3.15;;;0.70;;
14520;SDS011;7347;50.844;4.490;2023-08-24T14:53:45;2.40;;;0.73;;
14520;SDS011;7347;50.844;4.490;2023-08-24T14:56:12;2.38;;;0.90;;
14520;SDS011;7347;50.844;4.490;2023-08-24T14:58:39;3.58;;;0.77;;
14520;SDS011;7347;50.844;4.490;2023-08-24T15:01:06;1.85;;;0.80;;
14520;SDS011;7347;50.844;4.490;2023-08-24T15:03:35;1.13;;;0.70;;
14520;SDS011;7347;50.844;4.490;2023-08-24T15:06:03;1.88;;;0.57;;
14520;SDS011;7347;50.844;4.490;2023-08-24T15:08:31;4.63;;;0.82;;
14520;SDS011;7347;50.844;4.490;2023-08-24T15:10:59;1.40;;;0.60;;
14520;SDS011;7347;50.844;4.490;2023-08-24T15:13:27;1.05;;;0.70;;
14520;SDS011;7347;50.844;4.490;2023-08-24T15:15:56;2.80;;;0.60;;
14520;SDS011;7347;50.844;4.490;2023-08-24T15:18:23;1.73;;;0.60;;
14520;SDS011;7347;50.844;4.490;2023-08-24T15:20:53;1.38;;;0.52;;
14520;SDS011;7347;50.844;4.490;2023-08-24T15:23:24;1.42;;;0.60;;
14520;SDS011;7347;50.844;4.490;2023-08-24T15:25:52;1.58;;;0.82;;
14520;SDS011;7347;50.844;4.490;2023-08-24T15:28:20;0.88;;;0.50;;
14520;SDS011;7347;50.844;4.490;2023-08-24T15:30:47;2.63;;;1.83;;
14520;SDS011;7347;50.844;4.490;2023-08-24T15:33:14;5.07;;;2.70;;
14520;SDS011;7347;50.844;4.490;2023-08-24T15:35:41;1.40;;;0.80;;
14520;SDS011;7347;50.844;4.490;2023-08-24T15:38:09;2.53;;;1.35;;
14520;SDS011;7347;50.844;4.490;2023-08-24T15:40:37;1.75;;;1.00;;
14520;SDS011;7347;50.844;4.490;2023-08-24T15:43:05;1.50;;;0.60;;
14520;SDS011;7347;50.844;4.490;2023-08-24T15:45:32;1.17;;;0.50;;
14520;SDS011;7347;50.844;4.490;2023-08-24T15:48:00;1.50;;;0.50;;
14520;SDS011;7347;50.844;4.490;2023-08-24T15:50:27;2.00;;;0.60;;
14520;SDS011;7347;50.844;4.490;2023-08-24T15:52:54;1.67;;;0.98;;
14520;SDS011;7347;50.844;4.490;2023-08-24T15:55:27;1.05;;;0.60;;
14520;SDS011;7347;50.844;4.490;2023-08-24T15:57:55;0.70;;;0.47;;
14520;SDS011;7347;50.844;4.490;2023-08-24T16:00:21;1.88;;;0.40;;
14520;SDS011;7347;50.844;4.490;2023-08-24T16:02:48;0.98;;;0.60;;
14520;SDS011;7347;50.844;4.490;2023-08-24T16:05:15;0.75;;;0.45;;
14520;SDS011;7347;50.844;4.490;2023-08-24T16:07:42;1.08;;;0.70;;
14520;SDS011;7347;50.844;4.490;2023-08-24T16:10:10;1.65;;;0.70;;
14520;SDS011;7347;50.844;4.490;2023-08-24T16:12:38;2.60;;;0.60;;
14520;SDS011;7347;50.844;4.490;2023-08-24T16:15:05;0.77;;;0.50;;
14520;SDS011;7347;50.844;4.490;2023-08-24T16:17:33;0.70;;;0.50;;
14520;SDS011;7347;50.844;4.490;2023-08-24T16:20:01;1.83;;;0.60;;
14520;SDS011;7347;50.844;4.490;2023-08-24T16:22:32;1.00;;;0.63;;
14520;SDS011;7347;50.844;4.490;2023-08-24T16:24:59;1.10;;;0.47;;
14520;SDS011;7347;50.844;4.490;2023-08-24T16:27:25;0.98;;;0.50;;
14520;SDS011;7347;50.844;4.490;2023-08-24T16:29:54;5.10;;;0.65;;
14520;SDS011;7347;50.844;4.490;2023-08-24T16:32:21;1.42;;;0.60;;
14520;SDS011;7347;50.844;4.490;2023-08-24T16:34:48;1.02;;;0.65;;
14520;SDS011;7347;50.844;4.490;2023-08-24T16:37:15;1.40;;;0.50;;
14520;SDS011;7347;50.844;4.490;2023-08-24T16:39:42;0.80;;;0.50;;
14520;SDS011;7347;50.844;4.490;2023-08-24T16:42:08;1.05;;;0.60;;
14520;SDS011;7347;50.844;4.490;2023-08-24T16:44:35;2.35;;;0.68;;
14520;SDS011;7347;50.844;4.490;2023-08-24T16:47:04;2.55;;;0.70;;
14520;SDS011;7347;50.844;4.490;2023-08-24T16:49:31;1.63;;;0.60;;
14520;SDS011;7347;50.844;4.490;2023-08-24T16:51:58;1.30;;;0.40;;
14520;SDS011;7347;50.844;4.490;2023-08-24T16:54:24;0.93;;;0.65;;
14520;SDS011;7347;50.844;4.490;2023-08-24T16:56:51;1.77;;;1.08;;
14520;SDS011;7347;50.844;4.490;2023-08-24T16:59:18;1.85;;;0.60;;
14520;SDS011;7347;50.844;4.490;2023-08-24T17:01:45;0.73;;;0.60;;
14520;SDS011;7347;50.844;4.490;2023-08-24T17:04:13;1.05;;;0.80;;
14520;SDS011;7347;50.844;4.490;2023-08-24T17:06:40;0.88;;;0.73;;
14520;SDS011;7347;50.844;4.490;2023-08-24T17:09:07;1.30;;;0.75;;
14520;SDS011;7347;50.844;4.490;2023-08-24T17:11:34;0.73;;;0.60;;
14520;SDS011;7347;50.844;4.490;2023-08-24T17:14:01;1.50;;;0.80;;
14520;SDS011;7347;50.844;4.490;2023-08-24T17:16:28;2.40;;;0.88;;
14520;SDS011;7347;50.844;4.490;2023-08-24T17:18:55;2.25;;;0.80;;
14520;SDS011;7347;50.844;4.490;2023-08-24T17:21:23;0.77;;;0.40;;
14520;SDS011;7347;50.844;4.490;2023-08-24T17:23:50;2.00;;;0.70;;
14520;SDS011;7347;50.844;4.490;2023-08-24T17:26:17;1.73;;;0.60;;
14520;SDS011;7347;50.844;4.490;2023-08-24T17:28:44;0.63;;;0.60;;
14520;SDS011;7347;50.844;4.490;2023-08-24T17:31:10;1.35;;;0.82;;
14520;SDS011;7347;50.844;4.490;2023-08-24T17:33:37;1.95;;;1.23;;
14520;SDS011;7347;50.844;4.490;2023-08-24T17:36:04;1.88;;;0.90;;
14520;SDS011;7347;50.844;4.490;2023-08-24T17:38:32;0.90;;;0.68;;
14520;SDS011;7347;50.844;4.490;2023-08-24T17:41:00;1.85;;;0.77;;
14520;SDS011;7347;50.844;4.490;2023-08-24T17:43:28;1.75;;;0.55;;
14520;SDS011;7347;50.844;4.490;2023-08-24T17:45:55;1.67;;;0.70;;
14520;SDS011;7347;50.844;4.490;2023-08-24T17:48:22;1.50;;;0.70;;
14520;SDS011;7347;50.844;4.490;2023-08-24T17:50:52;1.02;;;0.70;;
14520;SDS011;7347;50.844;4.490;2023-08-24T17:53:20;1.50;;;0.82;;
14520;SDS011;7347;50.844;4.490;2023-08-24T17:55:54;1.65;;;0.90;;
14520;SDS011;7347;50.844;4.490;2023-08-24T17:58:21;1.23;;;0.80;;
14520;SDS011;7347;50.844;4.490;2023-08-24T18:00:48;2.00;;;0.93;;
14520;SDS011;7347;50.844;4.490;2023-08-24T18:03:16;3.03;;;0.82;;
14520;SDS011;7347;50.844;4.490;2023-08-24T18:05:43;4.65;;;0.80;;
14520;SDS011;7347;50.844;4.490;2023-08-24T18:08:10;1.73;;;0.98;;
14520;SDS011;7347;50.844;4.490;2023-08-24T18:10:38;2.05;;;0.80;;
14520;SDS011;7347;50.844;4.490;2023-08-24T18:13:06;1.38;;;0.80;;
14520;SDS011;7347;50.844;4.490;2023-08-24T18:15:33;0.90;;;0.68;;
14520;SDS011;7347;50.844;4.490;2023-08-24T18:18:01;2.78;;;0.85;;
14520;SDS011;7347;50.844;4.490;2023-08-24T18:20:29;2.33;;;1.00;;
14520;SDS011;7347;50.844;4.490;2023-08-24T18:22:56;3.00;;;0.80;;
14520;SDS011;7347;50.844;4.490;2023-08-24T18:25:23;3.35;;;0.90;;
14520;SDS011;7347;50.844;4.490;2023-08-24T18:27:51;1.15;;;0.85;;
14520;SDS011;7347;50.844;4.490;2023-08-24T18:30:19;3.53;;;0.80;;
14520;SDS011;7347;50.844;4.490;2023-08-24T18:32:46;1.55;;;0.93;;
14520;SDS011;7347;50.844;4.490;2023-08-24T18:35:13;3.60;;;0.88;;
14520;SDS011;7347;50.844;4.490;2023-08-24T18:37:40;11.32;;;6.28;;
14520;SDS011;7347;50.844;4.490;2023-08-24T18:40:07;3.53;;;2.30;;
14520;SDS011;7347;50.844;4.490;2023-08-24T18:42:35;2.60;;;1.20;;
14520;SDS011;7347;50.844;4.490;2023-08-24T18:45:02;4.10;;;1.15;;
14520;SDS011;7347;50.844;4.490;2023-08-24T18:47:31;2.83;;;1.23;;
14520;SDS011;7347;50.844;4.490;2023-08-24T18:49:58;2.55;;;1.00;;
14520;SDS011;7347;50.844;4.490;2023-08-24T18:52:26;1.58;;;0.90;;
14520;SDS011;7347;50.844;4.490;2023-08-24T18:54:53;3.10;;;0.88;;
14520;SDS011;7347;50.844;4.490;2023-08-24T18:57:21;2.72;;;0.73;;
14520;SDS011;7347;50.844;4.490;2023-08-24T18:59:48;1.73;;;0.90;;
14520;SDS011;7347;50.844;4.490;2023-08-24T19:02:15;1.02;;;0.60;;
14520;SDS011;7347;50.844;4.490;2023-08-24T19:04:44;1.10;;;0.70;;
14520;SDS011;7347;50.844;4.490;2023-08-24T19:07:12;1.45;;;0.90;;
14520;SDS011;7347;50.844;4.490;2023-08-24T19:09:39;3.17;;;1.00;;
14520;SDS011;7347;50.844;4.490;2023-08-24T19:12:06;2.05;;;0.90;;
14520;SDS011;7347;50.844;4.490;2023-08-24T19:14:33;1.23;;;0.90;;
14520;SDS011;7347;50.844;4.490;2023-08-24T19:17:00;2.22;;;0.90;;
14520;SDS011;7347;50.844;4.490;2023-08-24T19:19:27;1.08;;;0.70;;
14520;SDS011;7347;50.844;4.490;2023-08-24T19:21:56;3.90;;;0.98;;
14520;SDS011;7347;50.844;4.490;2023-08-24T19:24:22;2.35;;;0.90;;
14520;SDS011;7347;50.844;4.490;2023-08-24T19:26:49;3.15;;;0.85;;
14520;SDS011;7347;50.844;4.490;2023-08-24T19:29:16;3.83;;;2.60;;
14520;SDS011;7347;50.844;4.490;2023-08-24T19:31:43;1.75;;;1.20;;
14520;SDS011;7347;50.844;4.490;2023-08-24T19:34:10;1.55;;;0.90;;
14520;SDS011;7347;50.844;4.490;2023-08-24T19:36:37;2.38;;;1.20;;
14520;SDS011;7347;50.844;4.490;2023-08-24T19:39:05;1.83;;;1.10;;
14520;SDS011;7347;50.844;4.490;2023-08-24T19:41:32;4.47;;;0.80;;
14520;SDS011;7347;50.844;4.490;2023-08-24T19:43:59;2.85;;;1.00;;
14520;SDS011;7347;50.844;4.490;2023-08-24T19:46:26;1.98;;;1.00;;
14520;SDS011;7347;50.844;4.490;2023-08-24T19:48:54;1.83;;;1.27;;
14520;SDS011;7347;50.844;4.490;2023-08-24T19:51:21;2.33;;;1.10;;
14520;SDS011;7347;50.844;4.490;2023-08-24T19:53:48;1.73;;;0.90;;
14520;SDS011;7347;50.844;4.490;2023-08-24T19:56:16;1.85;;;1.13;;
14520;SDS011;7347;50.844;4.490;2023-08-24T19:58:43;2.17;;;1.15;;
14520;SDS011;7347;50.844;4.490;2023-08-24T20:01:10;6.30;;;1.83;;
14520;SDS011;7347;50.844;4.490;2023-08-24T20:03:37;1.52;;;1.10;;
14520;SDS011;7347;50.844;4.490;2023-08-24T20:06:08;1.65;;;1.20;;
14520;SDS011;7347;50.844;4.490;2023-08-24T20:08:44;2.00;;;1.15;;
14520;SDS011;7347;50.844;4.490;2023-08-24T20:11:11;3.55;;;0.70;;
14520;SDS011;7347;50.844;4.490;2023-08-24T20:13:39;2.40;;;1.08;;
14520;SDS011;7347;50.844;4.490;2023-08-24T20:16:06;2.30;;;0.95;;
14520;SDS011;7347;50.844;4.490;2023-08-24T20:18:33;3.05;;;1.10;;
14520;SDS011;7347;50.844;4.490;2023-08-24T20:21:02;8.02;;;0.93;;
14520;SDS011;7347;50.844;4.490;2023-08-24T20:23:30;1.55;;;0.98;;
14520;SDS011;7347;50.844;4.490;2023-08-24T20:25:57;5.40;;;1.80;;
14520;SDS011;7347;50.844;4.490;2023-08-24T20:28:26;4.53;;;2.05;;
14520;SDS011;7347;50.844;4.490;2023-08-24T20:30:58;2.65;;;1.60;;
14520;SDS011;7347;50.844;4.490;2023-08-24T20:33:25;3.33;;;1.55;;
14520;SDS011;7347;50.844;4.490;2023-08-24T20:35:52;2.38;;;1.00;;
14520;SDS011;7347;50.844;4.490;2023-08-24T20:38:18;2.33;;;1.23;;
14520;SDS011;7347;50.844;4.490;2023-08-24T20:40:46;2.03;;;1.17;;
14520;SDS011;7347;50.844;4.490;2023-08-24T20:43:13;1.80;;;1.00;;
14520;SDS011;7347;50.844;4.490;2023-08-24T20:45:40;2.65;;;1.25;;
14520;SDS011;7347;50.844;4.490;2023-08-24T20:48:09;2.92;;;1.00;;
14520;SDS011;7347;50.844;4.490;2023-08-24T20:50:36;3.30;;;1.20;;
14520;SDS011;7347;50.844;4.490;2023-08-24T20:53:03;1.98;;;1.13;;
14520;SDS011;7347;50.844;4.490;2023-08-24T20:55:32;1.73;;;1.10;;
14520;SDS011;7347;50.844;4.490;2023-08-24T20:57:59;2.15;;;1.20;;
14520;SDS011;7347;50.844;4.490;2023-08-24T21:00:26;1.25;;;0.88;;
14520;SDS011;7347;50.844;4.490;2023-08-24T21:02:53;2.55;;;1.65;;
14520;SDS011;7347;50.844;4.490;2023-08-24T21:05:21;5.22;;;1.20;;
